sensor_id;sensor_type;location;lat;lon;timestamp;pressure;altitude;pressure_sealevel;temperature;humidity
82621;BME280;72291;55.002;-1.592;2023-12-20T00:00:14;100341.60;;;4.07;67.88
82621;BME280;72291;55.002;-1.592;2023-12-20T00:02:39;100344.63;;;4.52;66.21
82621;BME280;72291;55.002;-1.592;2023-12-20T00:05:05;100346.21;;;5.01;65.50
82621;BME280;72291;55.002;-1.592;2023-12-20T00:07:29;100346.96;;;4.86;64.64
82621;BME280;72291;55.002;-1.592;2023-12-20T00:09:55;100344.42;;;4.40;66.24
82621;BME280;72291;55.002;-1.592;2023-12-20T00:12:20;100329.01;;;4.83;64.90
82621;BME280;72291;55.002;-1.592;2023-12-20T00:14:45;100330.45;;;4.42;66.47
82621;BME280;72291;55.002;-1.592;2023-12-20T00:17:10;100313.75;;;4.51;67.05
82621;BME280;72291;55.002;-1.592;2023-12-20T00:19:35;100303.37;;;4.87;65.37
82621;BME280;72291;55.002;-1.592;2023-12-20T00:22:01;100300.39;;;4.25;65.52
82621;BME280;72291;55.002;-1.592;2023-12-20T00:24:26;100300.23;;;4.45;66.14
82621;BME280;72291;55.002;-1.592;2023-12-20T00:26:51;100290.67;;;4.05;66.66
82621;BME280;72291;55.002;-1.592;2023-12-20T00:29:16;100289.49;;;4.13;65.68
82621;BME280;72291;55.002;-1.592;2023-12-20T00:31:42;100289.71;;;4.50;65.33
82621;BME280;72291;55.002;-1.592;2023-12-20T00:34:08;100294.99;;;3.94;67.00
82621;BME280;72291;55.002;-1.592;2023-12-20T00:36:33;100308.57;;;4.63;65.40
82621;BME280;72291;55.002;-1.592;2023-12-20T00:38:58;100305.43;;;3.98;66.89
82621;BME280;72291;55.002;-1.592;2023-12-20T00:41:23;100307.61;;;4.12;66.67
82621;BME280;72291;55.002;-1.592;2023-12-20T00:43:49;100318.83;;;4.73;65.52
82621;BME280;72291;55.002;-1.592;2023-12-20T00:46:14;100304.57;;;4.75;64.84
82621;BME280;72291;55.002;-1.592;2023-12-20T00:48:39;100322.29;;;4.17;66.14
82621;BME280;72291;55.002;-1.592;2023-12-20T00:51:04;100321.24;;;5.07;63.65
82621;BME280;72291;55.002;-1.592;2023-12-20T00:53:29;100311.00;;;4.55;65.80
82621;BME280;72291;55.002;-1.592;2023-12-20T00:55:54;100313.89;;;4.46;65.15
82621;BME280;72291;55.002;-1.592;2023-12-20T00:58:21;100308.28;;;4.70;64.38
82621;BME280;72291;55.002;-1.592;2023-12-20T01:00:45;100313.36;;;4.34;65.95
82621;BME280;72291;55.002;-1.592;2023-12-20T01:03:10;100304.35;;;4.68;65.93
82621;BME280;72291;55.002;-1.592;2023-12-20T01:05:35;100308.80;;;4.68;66.77
82621;BME280;72291;55.002;-1.592;2023-12-20T01:08:00;100301.20;;;4.56;67.32
82621;BME280;72291;55.002;-1.592;2023-12-20T01:10:26;100292.73;;;4.38;67.76
82621;BME280;72291;55.002;-1.592;2023-12-20T01:12:51;100294.32;;;4.32;67.14
82621;BME280;72291;55.002;-1.592;2023-12-20T01:15:16;100291.05;;;4.75;66.72
82621;BME280;72291;55.002;-1.592;2023-12-20T01:17:42;100284.79;;;4.38;66.94
82621;BME280;72291;55.002;-1.592;2023-12-20T01:20:08;100283.77;;;4.47;67.43
82621;BME280;72291;55.002;-1.592;2023-12-20T01:22:34;100281.93;;;3.94;67.20
82621;BME280;72291;55.002;-1.592;2023-12-20T01:24:58;100283.46;;;4.36;67.26
82621;BME280;72291;55.002;-1.592;2023-12-20T01:27:23;100283.12;;;4.49;65.29
82621;BME280;72291;55.002;-1.592;2023-12-20T01:29:48;100275.92;;;4.97;65.66
82621;BME280;72291;55.002;-1.592;2023-12-20T01:32:13;100296.95;;;5.02;66.28
82621;BME280;72291;55.002;-1.592;2023-12-20T01:34:38;100281.61;;;4.76;66.12
82621;BME280;72291;55.002;-1.592;2023-12-20T01:37:04;100280.62;;;4.88;65.61
82621;BME280;72291;55.002;-1.592;2023-12-20T01:39:29;100282.14;;;4.97;65.83
82621;BME280;72291;55.002;-1.592;2023-12-20T01:41:54;100285.00;;;5.03;65.56
82621;BME280;72291;55.002;-1.592;2023-12-20T01:44:20;100296.54;;;5.00;66.11
82621;BME280;72291;55.002;-1.592;2023-12-20T01:46:46;100288.19;;;4.80;66.34
82621;BME280;72291;55.002;-1.592;2023-12-20T01:49:11;100294.06;;;4.82;66.17
82621;BME280;72291;55.002;-1.592;2023-12-20T01:51:36;100297.95;;;4.98;65.20
82621;BME280;72291;55.002;-1.592;2023-12-20T01:54:02;100294.73;;;5.14;64.70
82621;BME280;72291;55.002;-1.592;2023-12-20T01:56:27;100305.52;;;5.47;64.55
82621;BME280;72291;55.002;-1.592;2023-12-20T01:58:53;100290.58;;;5.76;63.85
82621;BME280;72291;55.002;-1.592;2023-12-20T02:01:17;100293.84;;;5.33;64.36
82621;BME280;72291;55.002;-1.592;2023-12-20T02:03:42;100297.74;;;5.34;64.66
82621;BME280;72291;55.002;-1.592;2023-12-20T02:06:08;100315.20;;;5.53;64.18
82621;BME280;72291;55.002;-1.592;2023-12-20T02:08:32;100306.17;;;5.76;64.98
82621;BME280;72291;55.002;-1.592;2023-12-20T02:10:59;100304.69;;;5.28;64.43
82621;BME280;72291;55.002;-1.592;2023-12-20T02:13:23;100304.72;;;5.03;66.00
82621;BME280;72291;55.002;-1.592;2023-12-20T02:15:48;100287.83;;;5.43;65.55
82621;BME280;72291;55.002;-1.592;2023-12-20T02:18:13;100293.38;;;5.05;65.79
82621;BME280;72291;55.002;-1.592;2023-12-20T02:20:38;100283.42;;;5.04;66.36
82621;BME280;72291;55.002;-1.592;2023-12-20T02:23:05;100279.84;;;5.15;65.94
82621;BME280;72291;55.002;-1.592;2023-12-20T02:25:29;100287.53;;;4.72;65.60
82621;BME280;72291;55.002;-1.592;2023-12-20T02:27:55;100287.02;;;5.25;65.78
82621;BME280;72291;55.002;-1.592;2023-12-20T02:30:19;100289.26;;;5.78;63.56
82621;BME280;72291;55.002;-1.592;2023-12-20T02:32:44;100291.75;;;5.31;64.19
82621;BME280;72291;55.002;-1.592;2023-12-20T02:35:11;100291.07;;;5.45;63.35
82621;BME280;72291;55.002;-1.592;2023-12-20T02:37:35;100299.87;;;5.73;63.56
82621;BME280;72291;55.002;-1.592;2023-12-20T02:40:00;100293.12;;;5.08;64.80
82621;BME280;72291;55.002;-1.592;2023-12-20T02:42:26;100291.36;;;4.38;67.24
82621;BME280;72291;55.002;-1.592;2023-12-20T02:44:51;100291.32;;;5.27;64.96
82621;BME280;72291;55.002;-1.592;2023-12-20T02:47:16;100288.84;;;4.87;67.80
82621;BME280;72291;55.002;-1.592;2023-12-20T02:49:41;100300.40;;;4.73;67.37
82621;BME280;72291;55.002;-1.592;2023-12-20T02:52:07;100300.70;;;4.61;65.84
82621;BME280;72291;55.002;-1.592;2023-12-20T02:54:31;100300.71;;;5.11;64.29
82621;BME280;72291;55.002;-1.592;2023-12-20T02:56:57;100309.29;;;4.89;66.04
82621;BME280;72291;55.002;-1.592;2023-12-20T02:59:22;100309.38;;;4.14;66.71
82621;BME280;72291;55.002;-1.592;2023-12-20T03:01:47;100316.52;;;5.41;64.78
82621;BME280;72291;55.002;-1.592;2023-12-20T03:04:13;100315.77;;;5.21;64.00
82621;BME280;72291;55.002;-1.592;2023-12-20T03:06:38;100320.11;;;5.34;65.00
82621;BME280;72291;55.002;-1.592;2023-12-20T03:09:03;100326.36;;;4.88;66.41
82621;BME280;72291;55.002;-1.592;2023-12-20T03:11:28;100327.37;;;4.47;67.60
82621;BME280;72291;55.002;-1.592;2023-12-20T03:13:53;100335.60;;;4.63;67.19
82621;BME280;72291;55.002;-1.592;2023-12-20T03:16:18;100331.76;;;5.33;65.09
82621;BME280;72291;55.002;-1.592;2023-12-20T03:18:44;100321.68;;;5.81;64.03
82621;BME280;72291;55.002;-1.592;2023-12-20T03:21:09;100321.91;;;4.76;65.69
82621;BME280;72291;55.002;-1.592;2023-12-20T03:23:34;100323.44;;;4.69;66.91
82621;BME280;72291;55.002;-1.592;2023-12-20T03:25:59;100321.16;;;5.35;65.39
82621;BME280;72291;55.002;-1.592;2023-12-20T03:28:25;100314.46;;;5.17;65.30
82621;BME280;72291;55.002;-1.592;2023-12-20T03:30:50;100323.72;;;4.84;65.07
82621;BME280;72291;55.002;-1.592;2023-12-20T03:33:15;100319.13;;;5.30;62.90
82621;BME280;72291;55.002;-1.592;2023-12-20T03:35:43;100320.63;;;5.13;63.89
82621;BME280;72291;55.002;-1.592;2023-12-20T03:38:05;100320.21;;;4.97;63.48
82621;BME280;72291;55.002;-1.592;2023-12-20T03:40:30;100326.62;;;5.22;63.93
82621;BME280;72291;55.002;-1.592;2023-12-20T03:42:55;100333.39;;;5.12;64.52
82621;BME280;72291;55.002;-1.592;2023-12-20T03:45:20;100325.77;;;5.08;65.13
82621;BME280;72291;55.002;-1.592;2023-12-20T03:47:46;100318.74;;;5.43;63.80
82621;BME280;72291;55.002;-1.592;2023-12-20T03:50:11;100318.86;;;5.00;64.43
82621;BME280;72291;55.002;-1.592;2023-12-20T03:52:36;100318.17;;;5.04;65.26
82621;BME280;72291;55.002;-1.592;2023-12-20T03:55:02;100315.92;;;4.92;65.26
82621;BME280;72291;55.002;-1.592;2023-12-20T03:57:27;100315.56;;;5.35;63.64
82621;BME280;72291;55.002;-1.592;2023-12-20T03:59:52;100318.38;;;5.74;62.59
82621;BME280;72291;55.002;-1.592;2023-12-20T04:02:17;100318.29;;;5.43;63.34
82621;BME280;72291;55.002;-1.592;2023-12-20T04:04:42;100321.16;;;6.32;61.52
82621;BME280;72291;55.002;-1.592;2023-12-20T04:07:07;100325.39;;;5.19;64.14
82621;BME280;72291;55.002;-1.592;2023-12-20T04:09:33;100327.21;;;4.94;66.47
82621;BME280;72291;55.002;-1.592;2023-12-20T04:11:58;100330.82;;;4.43;67.68
82621;BME280;72291;55.002;-1.592;2023-12-20T04:14:23;100326.58;;;4.71;66.53
82621;BME280;72291;55.002;-1.592;2023-12-20T04:16:48;100328.67;;;4.66;66.43
82621;BME280;72291;55.002;-1.592;2023-12-20T04:19:13;100322.26;;;4.88;65.84
82621;BME280;72291;55.002;-1.592;2023-12-20T04:21:38;100325.90;;;4.49;66.57
82621;BME280;72291;55.002;-1.592;2023-12-20T04:24:04;100322.24;;;4.86;66.24
82621;BME280;72291;55.002;-1.592;2023-12-20T04:26:29;100314.77;;;5.13;65.39
82621;BME280;72291;55.002;-1.592;2023-12-20T04:28:54;100308.35;;;5.08;65.19
82621;BME280;72291;55.002;-1.592;2023-12-20T04:31:19;100311.00;;;4.74;66.44
82621;BME280;72291;55.002;-1.592;2023-12-20T04:33:44;100311.99;;;5.27;65.21
82621;BME280;72291;55.002;-1.592;2023-12-20T04:36:11;100307.92;;;5.07;64.43
82621;BME280;72291;55.002;-1.592;2023-12-20T04:38:35;100307.01;;;5.08;65.17
82621;BME280;72291;55.002;-1.592;2023-12-20T04:41:00;100322.72;;;5.59;63.25
82621;BME280;72291;55.002;-1.592;2023-12-20T04:43:26;100319.76;;;5.55;63.78
82621;BME280;72291;55.002;-1.592;2023-12-20T04:45:51;100317.19;;;4.57;66.07
82621;BME280;72291;55.002;-1.592;2023-12-20T04:48:16;100324.65;;;4.85;66.27
82621;BME280;72291;55.002;-1.592;2023-12-20T04:50:41;100323.45;;;4.71;66.11
82621;BME280;72291;55.002;-1.592;2023-12-20T04:53:06;100321.79;;;5.13;64.84
82621;BME280;72291;55.002;-1.592;2023-12-20T04:55:31;100320.42;;;5.01;64.23
82621;BME280;72291;55.002;-1.592;2023-12-20T04:57:57;100325.89;;;5.61;62.72
82621;BME280;72291;55.002;-1.592;2023-12-20T05:00:22;100320.18;;;6.43;60.66
82621;BME280;72291;55.002;-1.592;2023-12-20T05:02:47;100330.33;;;5.20;64.26
82621;BME280;72291;55.002;-1.592;2023-12-20T05:05:12;100333.48;;;5.36;64.63
82621;BME280;72291;55.002;-1.592;2023-12-20T05:07:37;100331.32;;;5.11;65.24
82621;BME280;72291;55.002;-1.592;2023-12-20T05:10:03;100346.57;;;4.71;65.61
82621;BME280;72291;55.002;-1.592;2023-12-20T05:12:28;100340.79;;;5.31;63.93
82621;BME280;72291;55.002;-1.592;2023-12-20T05:14:53;100348.21;;;5.29;63.32
82621;BME280;72291;55.002;-1.592;2023-12-20T05:17:18;100350.95;;;4.86;64.92
82621;BME280;72291;55.002;-1.592;2023-12-20T05:19:44;100342.27;;;5.34;63.42
82621;BME280;72291;55.002;-1.592;2023-12-20T05:22:09;100338.93;;;5.23;63.75
82621;BME280;72291;55.002;-1.592;2023-12-20T05:24:34;100322.58;;;5.31;63.66
82621;BME280;72291;55.002;-1.592;2023-12-20T05:26:59;100327.89;;;4.96;63.88
82621;BME280;72291;55.002;-1.592;2023-12-20T05:29:24;100327.78;;;4.99;64.61
82621;BME280;72291;55.002;-1.592;2023-12-20T05:31:49;100318.79;;;5.10;64.05
82621;BME280;72291;55.002;-1.592;2023-12-20T05:34:15;100314.56;;;5.57;62.86
82621;BME280;72291;55.002;-1.592;2023-12-20T05:36:40;100311.55;;;5.95;60.85
82621;BME280;72291;55.002;-1.592;2023-12-20T05:39:05;100319.89;;;5.54;62.29
82621;BME280;72291;55.002;-1.592;2023-12-20T05:41:30;100322.01;;;5.38;62.75
82621;BME280;72291;55.002;-1.592;2023-12-20T05:43:55;100310.47;;;4.99;63.91
82621;BME280;72291;55.002;-1.592;2023-12-20T05:46:20;100308.53;;;5.23;62.34
82621;BME280;72291;55.002;-1.592;2023-12-20T05:48:46;100302.22;;;5.70;61.82
82621;BME280;72291;55.002;-1.592;2023-12-20T05:51:12;100291.69;;;5.12;62.53
82621;BME280;72291;55.002;-1.592;2023-12-20T05:53:36;100309.92;;;5.05;64.04
82621;BME280;72291;55.002;-1.592;2023-12-20T05:56:01;100306.16;;;4.69;64.37
82621;BME280;72291;55.002;-1.592;2023-12-20T05:58:26;100294.70;;;5.21;63.28
82621;BME280;72291;55.002;-1.592;2023-12-20T06:00:52;100297.07;;;5.35;63.02
82621;BME280;72291;55.002;-1.592;2023-12-20T06:03:17;100304.96;;;4.34;65.55
82621;BME280;72291;55.002;-1.592;2023-12-20T06:05:42;100314.10;;;5.14;64.36
82621;BME280;72291;55.002;-1.592;2023-12-20T06:08:07;100311.94;;;5.24;62.48
82621;BME280;72291;55.002;-1.592;2023-12-20T06:10:32;100319.59;;;5.23;62.96
82621;BME280;72291;55.002;-1.592;2023-12-20T06:12:59;100324.53;;;5.10;63.69
82621;BME280;72291;55.002;-1.592;2023-12-20T06:15:23;100335.03;;;5.69;62.93
82621;BME280;72291;55.002;-1.592;2023-12-20T06:17:48;100343.10;;;5.54;62.28
82621;BME280;72291;55.002;-1.592;2023-12-20T06:20:14;100352.98;;;4.93;63.01
82621;BME280;72291;55.002;-1.592;2023-12-20T06:22:39;100348.31;;;5.06;62.85
82621;BME280;72291;55.002;-1.592;2023-12-20T06:25:05;100358.28;;;5.17;62.74
82621;BME280;72291;55.002;-1.592;2023-12-20T06:27:29;100363.90;;;4.59;65.95
82621;BME280;72291;55.002;-1.592;2023-12-20T06:29:55;100355.50;;;4.79;64.75
82621;BME280;72291;55.002;-1.592;2023-12-20T06:32:20;100353.83;;;4.86;64.97
82621;BME280;72291;55.002;-1.592;2023-12-20T06:34:45;100347.68;;;4.44;65.67
82621;BME280;72291;55.002;-1.592;2023-12-20T06:37:10;100340.84;;;4.62;63.42
82621;BME280;72291;55.002;-1.592;2023-12-20T06:39:36;100344.91;;;4.69;63.43
82621;BME280;72291;55.002;-1.592;2023-12-20T06:42:00;100348.39;;;5.31;62.72
82621;BME280;72291;55.002;-1.592;2023-12-20T06:44:26;100340.21;;;5.84;60.73
82621;BME280;72291;55.002;-1.592;2023-12-20T06:46:51;100344.93;;;5.71;60.48
82621;BME280;72291;55.002;-1.592;2023-12-20T06:49:17;100347.56;;;5.16;63.30
82621;BME280;72291;55.002;-1.592;2023-12-20T06:51:41;100350.26;;;5.23;62.39
82621;BME280;72291;55.002;-1.592;2023-12-20T06:54:06;100354.62;;;5.75;61.09
82621;BME280;72291;55.002;-1.592;2023-12-20T06:56:31;100358.45;;;5.53;61.87
82621;BME280;72291;55.002;-1.592;2023-12-20T06:58:57;100359.26;;;4.62;62.21
82621;BME280;72291;55.002;-1.592;2023-12-20T07:01:22;100361.80;;;5.32;62.53
82621;BME280;72291;55.002;-1.592;2023-12-20T07:03:47;100354.67;;;4.32;64.05
82621;BME280;72291;55.002;-1.592;2023-12-20T07:06:12;100354.02;;;4.76;63.29
82621;BME280;72291;55.002;-1.592;2023-12-20T07:08:37;100351.68;;;4.86;63.13
82621;BME280;72291;55.002;-1.592;2023-12-20T07:11:03;100349.84;;;5.18;61.73
82621;BME280;72291;55.002;-1.592;2023-12-20T07:13:29;100354.79;;;5.50;60.93
82621;BME280;72291;55.002;-1.592;2023-12-20T07:15:54;100361.70;;;5.70;59.26
82621;BME280;72291;55.002;-1.592;2023-12-20T07:18:18;100363.85;;;4.96;60.75
82621;BME280;72291;55.002;-1.592;2023-12-20T07:20:45;100365.02;;;4.68;62.74
82621;BME280;72291;55.002;-1.592;2023-12-20T07:23:09;100360.79;;;5.12;61.45
82621;BME280;72291;55.002;-1.592;2023-12-20T07:25:35;100353.64;;;5.55;60.06
82621;BME280;72291;55.002;-1.592;2023-12-20T07:28:00;100361.12;;;5.68;59.42
82621;BME280;72291;55.002;-1.592;2023-12-20T07:30:26;100364.05;;;5.59;59.54
82621;BME280;72291;55.002;-1.592;2023-12-20T07:32:50;100367.38;;;5.24;62.68
82621;BME280;72291;55.002;-1.592;2023-12-20T07:35:16;100369.98;;;4.98;62.06
82621;BME280;72291;55.002;-1.592;2023-12-20T07:37:40;100368.30;;;5.76;60.42
82621;BME280;72291;55.002;-1.592;2023-12-20T07:40:09;100366.64;;;5.78;61.78
82621;BME280;72291;55.002;-1.592;2023-12-20T07:42:30;100367.54;;;6.02;60.79
82621;BME280;72291;55.002;-1.592;2023-12-20T07:44:56;100362.77;;;6.00;59.80
82621;BME280;72291;55.002;-1.592;2023-12-20T07:47:21;100340.76;;;5.83;60.16
82621;BME280;72291;55.002;-1.592;2023-12-20T07:49:48;100339.74;;;6.03;59.82
82621;BME280;72291;55.002;-1.592;2023-12-20T07:52:11;100343.26;;;6.62;59.33
82621;BME280;72291;55.002;-1.592;2023-12-20T07:54:36;100338.57;;;6.49;58.83
82621;BME280;72291;55.002;-1.592;2023-12-20T07:57:01;100346.45;;;6.59;59.05
82621;BME280;72291;55.002;-1.592;2023-12-20T07:59:26;100351.30;;;6.53;59.17
82621;BME280;72291;55.002;-1.592;2023-12-20T08:01:52;100344.18;;;5.75;61.37
82621;BME280;72291;55.002;-1.592;2023-12-20T08:04:17;100340.90;;;5.83;60.61
82621;BME280;72291;55.002;-1.592;2023-12-20T08:06:42;100337.83;;;5.83;60.97
82621;BME280;72291;55.002;-1.592;2023-12-20T08:09:07;100345.89;;;5.75;61.35
82621;BME280;72291;55.002;-1.592;2023-12-20T08:11:32;100344.16;;;6.76;59.35
82621;BME280;72291;55.002;-1.592;2023-12-20T08:13:57;100338.75;;;6.54;59.39
82621;BME280;72291;55.002;-1.592;2023-12-20T08:16:22;100340.07;;;5.78;60.83
82621;BME280;72291;55.002;-1.592;2023-12-20T08:18:48;100338.22;;;5.99;61.51
82621;BME280;72291;55.002;-1.592;2023-12-20T08:21:13;100339.99;;;5.85;61.48
82621;BME280;72291;55.002;-1.592;2023-12-20T08:23:38;100342.99;;;5.04;63.78
82621;BME280;72291;55.002;-1.592;2023-12-20T08:26:04;100341.76;;;5.77;62.46
82621;BME280;72291;55.002;-1.592;2023-12-20T08:28:28;100334.70;;;5.29;62.20
82621;BME280;72291;55.002;-1.592;2023-12-20T08:30:53;100332.78;;;6.36;60.97
82621;BME280;72291;55.002;-1.592;2023-12-20T08:33:19;100325.85;;;5.64;62.69
82621;BME280;72291;55.002;-1.592;2023-12-20T08:35:44;100320.59;;;6.20;61.55
82621;BME280;72291;55.002;-1.592;2023-12-20T08:38:15;100326.07;;;6.10;61.64
82621;BME280;72291;55.002;-1.592;2023-12-20T08:40:34;100331.22;;;5.75;61.36
82621;BME280;72291;55.002;-1.592;2023-12-20T08:42:59;100333.88;;;5.89;62.54
82621;BME280;72291;55.002;-1.592;2023-12-20T08:45:24;100329.49;;;5.47;63.28
82621;BME280;72291;55.002;-1.592;2023-12-20T08:47:49;100329.40;;;6.04;62.03
82621;BME280;72291;55.002;-1.592;2023-12-20T08:50:16;100326.71;;;5.72;62.78
82621;BME280;72291;55.002;-1.592;2023-12-20T08:52:40;100322.82;;;5.60;61.96
82621;BME280;72291;55.002;-1.592;2023-12-20T08:55:06;100325.04;;;6.46;60.86
82621;BME280;72291;55.002;-1.592;2023-12-20T08:57:30;100318.75;;;5.87;61.30
82621;BME280;72291;55.002;-1.592;2023-12-20T08:59:56;100315.60;;;5.83;61.90
82621;BME280;72291;55.002;-1.592;2023-12-20T09:02:21;100313.85;;;5.87;60.35
82621;BME280;72291;55.002;-1.592;2023-12-20T09:04:46;100305.91;;;6.61;60.10
82621;BME280;72291;55.002;-1.592;2023-12-20T09:07:21;100305.82;;;6.79;59.26
82621;BME280;72291;55.002;-1.592;2023-12-20T09:09:36;100292.45;;;6.52;60.03
82621;BME280;72291;55.002;-1.592;2023-12-20T09:12:02;100303.23;;;5.89;61.10
82621;BME280;72291;55.002;-1.592;2023-12-20T09:14:28;100302.41;;;6.69;59.12
82621;BME280;72291;55.002;-1.592;2023-12-20T09:16:52;100290.65;;;7.10;59.26
82621;BME280;72291;55.002;-1.592;2023-12-20T09:19:17;100293.45;;;6.47;60.22
82621;BME280;72291;55.002;-1.592;2023-12-20T09:21:42;100279.45;;;6.40;59.74
82621;BME280;72291;55.002;-1.592;2023-12-20T09:24:07;100278.48;;;7.50;57.91
82621;BME280;72291;55.002;-1.592;2023-12-20T09:26:33;100277.26;;;7.28;58.02
82621;BME280;72291;55.002;-1.592;2023-12-20T09:28:58;100286.27;;;6.84;59.87
82621;BME280;72291;55.002;-1.592;2023-12-20T09:31:23;100283.62;;;6.43;61.22
82621;BME280;72291;55.002;-1.592;2023-12-20T09:33:48;100274.07;;;6.84;60.43
82621;BME280;72291;55.002;-1.592;2023-12-20T09:36:13;100269.72;;;6.19;61.81
82621;BME280;72291;55.002;-1.592;2023-12-20T09:38:39;100263.67;;;6.22;63.15
82621;BME280;72291;55.002;-1.592;2023-12-20T09:41:03;100268.71;;;5.95;64.32
82621;BME280;72291;55.002;-1.592;2023-12-20T09:43:30;100263.64;;;6.46;62.55
82621;BME280;72291;55.002;-1.592;2023-12-20T09:45:57;100251.60;;;6.91;61.45
82621;BME280;72291;55.002;-1.592;2023-12-20T09:48:20;100246.92;;;7.08;62.24
82621;BME280;72291;55.002;-1.592;2023-12-20T09:50:46;100258.27;;;6.80;63.38
82621;BME280;72291;55.002;-1.592;2023-12-20T09:53:14;100255.88;;;6.45;64.04
82621;BME280;72291;55.002;-1.592;2023-12-20T09:55:36;100252.48;;;6.48;63.04
82621;BME280;72291;55.002;-1.592;2023-12-20T09:58:01;100237.62;;;7.74;60.27
82621;BME280;72291;55.002;-1.592;2023-12-20T10:00:26;100235.31;;;6.88;61.31
82621;BME280;72291;55.002;-1.592;2023-12-20T10:02:57;100227.48;;;7.09;61.64
82621;BME280;72291;55.002;-1.592;2023-12-20T10:05:17;100216.79;;;7.61;60.41
82621;BME280;72291;55.002;-1.592;2023-12-20T10:07:41;100212.08;;;7.79;60.06
82621;BME280;72291;55.002;-1.592;2023-12-20T10:10:07;100205.74;;;7.60;59.48
82621;BME280;72291;55.002;-1.592;2023-12-20T10:12:31;100201.28;;;7.66;60.11
82621;BME280;72291;55.002;-1.592;2023-12-20T10:14:58;100198.93;;;7.91;60.26
82621;BME280;72291;55.002;-1.592;2023-12-20T10:17:22;100184.35;;;7.97;60.18
82621;BME280;72291;55.002;-1.592;2023-12-20T10:19:47;100176.47;;;7.61;60.22
82621;BME280;72291;55.002;-1.592;2023-12-20T10:22:12;100165.90;;;7.97;59.67
82621;BME280;72291;55.002;-1.592;2023-12-20T10:24:37;100154.21;;;7.36;62.02
82621;BME280;72291;55.002;-1.592;2023-12-20T10:27:03;100141.96;;;7.54;61.78
82621;BME280;72291;55.002;-1.592;2023-12-20T10:29:27;100131.50;;;8.24;60.22
82621;BME280;72291;55.002;-1.592;2023-12-20T10:31:52;100127.80;;;8.44;59.42
82621;BME280;72291;55.002;-1.592;2023-12-20T10:34:18;100120.96;;;7.92;60.22
82621;BME280;72291;55.002;-1.592;2023-12-20T10:36:43;100110.41;;;8.25;59.41
82621;BME280;72291;55.002;-1.592;2023-12-20T10:39:09;100114.72;;;7.98;60.33
82621;BME280;72291;55.002;-1.592;2023-12-20T10:41:33;100106.14;;;8.24;59.89
82621;BME280;72291;55.002;-1.592;2023-12-20T10:44:00;100099.12;;;7.58;62.09
82621;BME280;72291;55.002;-1.592;2023-12-20T10:46:24;100094.32;;;8.05;61.19
82621;BME280;72291;55.002;-1.592;2023-12-20T10:48:48;100072.72;;;7.27;63.17
82621;BME280;72291;55.002;-1.592;2023-12-20T10:51:17;100064.30;;;6.91;64.48
82621;BME280;72291;55.002;-1.592;2023-12-20T10:53:39;100048.99;;;7.28;64.67
82621;BME280;72291;55.002;-1.592;2023-12-20T10:56:05;100052.56;;;7.60;65.38
82621;BME280;72291;55.002;-1.592;2023-12-20T10:58:30;100049.06;;;7.01;67.27
82621;BME280;72291;55.002;-1.592;2023-12-20T11:00:59;100035.20;;;7.70;64.88
82621;BME280;72291;55.002;-1.592;2023-12-20T11:03:20;100035.38;;;7.26;65.32
82621;BME280;72291;55.002;-1.592;2023-12-20T11:05:50;100011.77;;;7.51;66.44
82621;BME280;72291;55.002;-1.592;2023-12-20T11:08:12;99993.19;;;7.23;67.89
82621;BME280;72291;55.002;-1.592;2023-12-20T11:10:41;100002.66;;;7.67;65.91
82621;BME280;72291;55.002;-1.592;2023-12-20T11:13:07;99976.59;;;7.51;66.08
82621;BME280;72291;55.002;-1.592;2023-12-20T11:15:27;99961.17;;;7.26;67.02
82621;BME280;72291;55.002;-1.592;2023-12-20T11:17:55;99940.36;;;7.52;66.27
82621;BME280;72291;55.002;-1.592;2023-12-20T11:20:15;99930.12;;;7.72;65.06
82621;BME280;72291;55.002;-1.592;2023-12-20T11:25:08;99936.46;;;8.07;64.21
82621;BME280;72291;55.002;-1.592;2023-12-20T11:27:31;99943.97;;;7.44;64.79
82621;BME280;72291;55.002;-1.592;2023-12-20T11:29:57;99934.04;;;8.17;63.03
82621;BME280;72291;55.002;-1.592;2023-12-20T11:32:29;99948.62;;;7.93;63.63
82621;BME280;72291;55.002;-1.592;2023-12-20T11:34:46;99951.45;;;7.92;64.30
82621;BME280;72291;55.002;-1.592;2023-12-20T11:37:11;99974.11;;;6.87;67.75
82621;BME280;72291;55.002;-1.592;2023-12-20T11:39:37;99973.38;;;7.58;65.86
82621;BME280;72291;55.002;-1.592;2023-12-20T11:42:05;99981.45;;;7.57;65.15
82621;BME280;72291;55.002;-1.592;2023-12-20T11:44:30;99973.94;;;8.28;62.85
82621;BME280;72291;55.002;-1.592;2023-12-20T11:46:51;99974.90;;;7.98;64.47
82621;BME280;72291;55.002;-1.592;2023-12-20T11:49:16;99958.02;;;8.14;64.85
82621;BME280;72291;55.002;-1.592;2023-12-20T11:51:42;99962.94;;;7.03;66.34
82621;BME280;72291;55.002;-1.592;2023-12-20T11:54:07;99953.87;;;8.10;65.08
82621;BME280;72291;55.002;-1.592;2023-12-20T11:56:32;99952.64;;;7.77;65.87
82621;BME280;72291;55.002;-1.592;2023-12-20T11:58:57;99955.33;;;8.17;65.02
82621;BME280;72291;55.002;-1.592;2023-12-20T12:01:22;99950.25;;;7.08;67.02
82621;BME280;72291;55.002;-1.592;2023-12-20T12:03:48;99937.69;;;7.19;66.06
82621;BME280;72291;55.002;-1.592;2023-12-20T12:06:12;99933.08;;;8.38;64.89
82621;BME280;72291;55.002;-1.592;2023-12-20T12:08:37;99943.79;;;7.82;65.03
82621;BME280;72291;55.002;-1.592;2023-12-20T12:11:03;99914.24;;;8.24;63.02
82621;BME280;72291;55.002;-1.592;2023-12-20T12:13:28;99922.01;;;7.69;64.20
82621;BME280;72291;55.002;-1.592;2023-12-20T12:15:54;99914.82;;;9.07;61.07
82621;BME280;72291;55.002;-1.592;2023-12-20T12:18:18;99902.31;;;8.85;61.71
82621;BME280;72291;55.002;-1.592;2023-12-20T12:20:43;99895.93;;;8.43;62.35
82621;BME280;72291;55.002;-1.592;2023-12-20T12:23:08;99897.50;;;8.46;63.75
82621;BME280;72291;55.002;-1.592;2023-12-20T12:25:36;99891.24;;;8.08;65.69
82621;BME280;72291;55.002;-1.592;2023-12-20T12:28:00;99880.04;;;7.91;64.48
82621;BME280;72291;55.002;-1.592;2023-12-20T12:30:24;99855.44;;;8.90;62.68
82621;BME280;72291;55.002;-1.592;2023-12-20T12:32:48;99850.77;;;8.22;63.43
82621;BME280;72291;55.002;-1.592;2023-12-20T12:35:14;99835.92;;;9.55;60.41
82621;BME280;72291;55.002;-1.592;2023-12-20T12:37:39;99840.83;;;8.62;62.41
82621;BME280;72291;55.002;-1.592;2023-12-20T12:40:05;99832.59;;;7.66;65.79